sensor_id;sensor_type;location;lat;lon;timestamp;P1;durP1;ratioP1;P2;durP2;ratioP2
57441;SDS011;43284;47.042;15.498;2023-04-19T00:00:58;4.25;;;2.42;;
57441;SDS011;43284;47.042;15.498;2023-04-19T00:03:25;4.13;;;2.33;;
57441;SDS011;43284;47.042;15.498;2023-04-19T00:05:52;3.25;;;2.15;;
57441;SDS011;43284;47.042;15.498;2023-04-19T00:08:22;3.95;;;2.33;;
57441;SDS011;43284;47.042;15.498;2023-04-19T00:10:48;2.67;;;2.00;;
57441;SDS011;43284;47.042;15.498;2023-04-19T00:13:13;2.97;;;2.03;;
57441;SDS011;43284;47.042;15.498;2023-04-19T00:15:39;4.47;;;2.60;;
57441;SDS011;43284;47.042;15.498;2023-04-19T00:18:05;3.30;;;2.20;;
57441;SDS011;43284;47.042;15.498;2023-04-19T00:20:31;4.50;;;2.45;;
57441;SDS011;43284;47.042;15.498;2023-04-19T00:22:57;4.68;;;2.40;;
57441;SDS011;43284;47.042;15.498;2023-04-19T00:25:23;4.72;;;2.40;;
57441;SDS011;43284;47.042;15.498;2023-04-19T00:27:49;3.50;;;2.17;;
57441;SDS011;43284;47.042;15.498;2023-04-19T00:30:14;3.42;;;2.53;;
57441;SDS011;43284;47.042;15.498;2023-04-19T00:32:40;4.68;;;2.42;;
57441;SDS011;43284;47.042;15.498;2023-04-19T00:35:06;4.63;;;2.30;;
57441;SDS011;43284;47.042;15.498;2023-04-19T00:37:31;7.15;;;2.78;;
57441;SDS011;43284;47.042;15.498;2023-04-19T00:39:57;3.90;;;2.83;;
57441;SDS011;43284;47.042;15.498;2023-04-19T00:42:22;4.80;;;2.70;;
57441;SDS011;43284;47.042;15.498;2023-04-19T00:44:48;4.70;;;2.75;;
57441;SDS011;43284;47.042;15.498;2023-04-19T00:47:13;3.55;;;2.58;;
57441;SDS011;43284;47.042;15.498;2023-04-19T00:49:39;4.32;;;2.65;;
57441;SDS011;43284;47.042;15.498;2023-04-19T00:52:06;7.18;;;3.08;;
57441;SDS011;43284;47.042;15.498;2023-04-19T00:54:32;5.68;;;2.53;;
57441;SDS011;43284;47.042;15.498;2023-04-19T00:56:58;4.97;;;2.78;;
57441;SDS011;43284;47.042;15.498;2023-04-19T00:59:23;3.45;;;2.40;;
57441;SDS011;43284;47.042;15.498;2023-04-19T01:01:49;3.85;;;2.75;;
57441;SDS011;43284;47.042;15.498;2023-04-19T01:04:15;4.45;;;3.05;;
57441;SDS011;43284;47.042;15.498;2023-04-19T01:06:41;3.72;;;2.22;;
57441;SDS011;43284;47.042;15.498;2023-04-19T01:09:06;3.60;;;2.28;;
57441;SDS011;43284;47.042;15.498;2023-04-19T01:11:33;4.15;;;2.55;;
57441;SDS011;43284;47.042;15.498;2023-04-19T01:13:59;3.35;;;2.78;;
57441;SDS011;43284;47.042;15.498;2023-04-19T01:16:27;4.57;;;2.80;;
57441;SDS011;43284;47.042;15.498;2023-04-19T01:18:53;5.30;;;2.78;;
57441;SDS011;43284;47.042;15.498;2023-04-19T01:21:19;7.03;;;2.45;;
57441;SDS011;43284;47.042;15.498;2023-04-19T01:23:46;3.97;;;2.58;;
57441;SDS011;43284;47.042;15.498;2023-04-19T01:26:12;4.30;;;2.60;;
57441;SDS011;43284;47.042;15.498;2023-04-19T01:28:37;4.20;;;2.88;;
57441;SDS011;43284;47.042;15.498;2023-04-19T01:31:03;5.40;;;2.97;;
57441;SDS011;43284;47.042;15.498;2023-04-19T01:33:28;4.50;;;2.70;;
57441;SDS011;43284;47.042;15.498;2023-04-19T01:35:54;4.80;;;2.72;;
57441;SDS011;43284;47.042;15.498;2023-04-19T01:38:19;4.15;;;2.45;;
57441;SDS011;43284;47.042;15.498;2023-04-19T01:40:45;4.40;;;2.88;;
57441;SDS011;43284;47.042;15.498;2023-04-19T01:43:15;4.05;;;2.40;;
57441;SDS011;43284;47.042;15.498;2023-04-19T01:45:41;4.78;;;2.63;;
57441;SDS011;43284;47.042;15.498;2023-04-19T01:48:07;5.63;;;3.03;;
57441;SDS011;43284;47.042;15.498;2023-04-19T01:50:32;4.80;;;2.85;;
57441;SDS011;43284;47.042;15.498;2023-04-19T01:52:58;6.05;;;2.80;;
57441;SDS011;43284;47.042;15.498;2023-04-19T01:55:24;5.82;;;2.75;;
57441;SDS011;43284;47.042;15.498;2023-04-19T01:57:50;3.97;;;2.55;;
57441;SDS011;43284;47.042;15.498;2023-04-19T02:00:19;4.60;;;2.90;;
57441;SDS011;43284;47.042;15.498;2023-04-19T02:02:45;6.63;;;3.28;;
57441;SDS011;43284;47.042;15.498;2023-04-19T02:05:11;6.70;;;3.85;;
57441;SDS011;43284;47.042;15.498;2023-04-19T02:07:36;4.53;;;2.85;;
57441;SDS011;43284;47.042;15.498;2023-04-19T02:10:02;5.07;;;2.80;;
57441;SDS011;43284;47.042;15.498;2023-04-19T02:12:30;7.20;;;2.90;;
57441;SDS011;43284;47.042;15.498;2023-04-19T02:14:56;4.35;;;3.03;;
57441;SDS011;43284;47.042;15.498;2023-04-19T02:17:25;5.65;;;2.60;;
57441;SDS011;43284;47.042;15.498;2023-04-19T02:19:51;3.63;;;2.40;;
57441;SDS011;43284;47.042;15.498;2023-04-19T02:22:19;3.63;;;2.83;;
57441;SDS011;43284;47.042;15.498;2023-04-19T02:24:45;4.38;;;2.72;;
57441;SDS011;43284;47.042;15.498;2023-04-19T02:27:12;8.63;;;3.35;;
57441;SDS011;43284;47.042;15.498;2023-04-19T02:29:38;5.32;;;3.08;;
57441;SDS011;43284;47.042;15.498;2023-04-19T02:32:04;4.70;;;2.53;;
57441;SDS011;43284;47.042;15.498;2023-04-19T02:34:34;4.50;;;2.63;;
57441;SDS011;43284;47.042;15.498;2023-04-19T02:37:00;4.78;;;2.88;;
57441;SDS011;43284;47.042;15.498;2023-04-19T02:39:25;7.45;;;3.17;;
57441;SDS011;43284;47.042;15.498;2023-04-19T02:41:51;4.72;;;2.78;;
57441;SDS011;43284;47.042;15.498;2023-04-19T02:44:17;5.72;;;2.72;;
57441;SDS011;43284;47.042;15.498;2023-04-19T02:46:51;4.40;;;3.03;;
57441;SDS011;43284;47.042;15.498;2023-04-19T02:49:17;5.05;;;3.00;;
57441;SDS011;43284;47.042;15.498;2023-04-19T02:51:44;5.20;;;2.70;;
57441;SDS011;43284;47.042;15.498;2023-04-19T02:54:10;4.13;;;2.47;;
57441;SDS011;43284;47.042;15.498;2023-04-19T02:56:35;8.20;;;2.67;;
57441;SDS011;43284;47.042;15.498;2023-04-19T02:59:01;4.50;;;3.08;;
57441;SDS011;43284;47.042;15.498;2023-04-19T03:01:28;5.25;;;3.00;;
57441;SDS011;43284;47.042;15.498;2023-04-19T03:03:54;4.45;;;2.95;;
57441;SDS011;43284;47.042;15.498;2023-04-19T03:06:20;4.55;;;2.70;;
57441;SDS011;43284;47.042;15.498;2023-04-19T03:08:45;4.43;;;2.70;;
57441;SDS011;43284;47.042;15.498;2023-04-19T03:11:11;3.88;;;2.45;;
57441;SDS011;43284;47.042;15.498;2023-04-19T03:13:38;9.10;;;2.97;;
57441;SDS011;43284;47.042;15.498;2023-04-19T03:16:05;4.97;;;2.88;;
57441;SDS011;43284;47.042;15.498;2023-04-19T03:18:31;5.10;;;3.13;;
57441;SDS011;43284;47.042;15.498;2023-04-19T03:20:57;5.18;;;2.47;;
57441;SDS011;43284;47.042;15.498;2023-04-19T03:23:22;6.05;;;2.85;;
57441;SDS011;43284;47.042;15.498;2023-04-19T03:25:49;5.25;;;2.95;;
57441;SDS011;43284;47.042;15.498;2023-04-19T03:28:15;7.32;;;3.17;;
57441;SDS011;43284;47.042;15.498;2023-04-19T03:30:40;5.90;;;2.50;;
57441;SDS011;43284;47.042;15.498;2023-04-19T03:33:06;4.35;;;2.60;;
57441;SDS011;43284;47.042;15.498;2023-04-19T03:35:31;4.35;;;2.35;;
57441;SDS011;43284;47.042;15.498;2023-04-19T03:37:57;5.80;;;2.80;;
57441;SDS011;43284;47.042;15.498;2023-04-19T03:40:23;4.32;;;2.70;;
57441;SDS011;43284;47.042;15.498;2023-04-19T03:42:48;4.85;;;2.92;;
57441;SDS011;43284;47.042;15.498;2023-04-19T03:45:14;4.93;;;3.13;;
57441;SDS011;43284;47.042;15.498;2023-04-19T03:47:40;6.20;;;2.65;;
57441;SDS011;43284;47.042;15.498;2023-04-19T03:50:05;8.23;;;2.83;;
57441;SDS011;43284;47.042;15.498;2023-04-19T03:52:31;4.90;;;3.08;;
57441;SDS011;43284;47.042;15.498;2023-04-19T03:54:57;4.97;;;2.83;;
57441;SDS011;43284;47.042;15.498;2023-04-19T03:57:22;6.03;;;3.15;;
57441;SDS011;43284;47.042;15.498;2023-04-19T03:59:48;6.22;;;2.55;;
57441;SDS011;43284;47.042;15.498;2023-04-19T04:02:13;4.05;;;2.58;;
57441;SDS011;43284;47.042;15.498;2023-04-19T04:04:39;4.63;;;2.80;;
57441;SDS011;43284;47.042;15.498;2023-04-19T04:07:04;3.58;;;2.72;;
57441;SDS011;43284;47.042;15.498;2023-04-19T04:09:30;7.25;;;5.43;;
57441;SDS011;43284;47.042;15.498;2023-04-19T04:11:56;9.85;;;5.30;;
57441;SDS011;43284;47.042;15.498;2023-04-19T04:14:22;4.90;;;2.90;;
57441;SDS011;43284;47.042;15.498;2023-04-19T04:16:48;4.18;;;2.25;;
57441;SDS011;43284;47.042;15.498;2023-04-19T04:19:13;4.95;;;2.60;;
57441;SDS011;43284;47.042;15.498;2023-04-19T04:21:39;5.50;;;3.03;;
57441;SDS011;43284;47.042;15.498;2023-04-19T04:24:04;5.82;;;2.65;;
57441;SDS011;43284;47.042;15.498;2023-04-19T04:26:31;5.55;;;3.40;;
57441;SDS011;43284;47.042;15.498;2023-04-19T04:28:58;4.72;;;2.75;;
57441;SDS011;43284;47.042;15.498;2023-04-19T04:31:26;5.57;;;2.75;;
57441;SDS011;43284;47.042;15.498;2023-04-19T04:33:52;21.83;;;10.60;;
57441;SDS011;43284;47.042;15.498;2023-04-19T04:36:19;5.57;;;3.60;;
57441;SDS011;43284;47.042;15.498;2023-04-19T04:38:45;6.30;;;3.55;;
57441;SDS011;43284;47.042;15.498;2023-04-19T04:41:10;7.10;;;3.47;;
57441;SDS011;43284;47.042;15.498;2023-04-19T04:43:36;7.82;;;2.83;;
57441;SDS011;43284;47.042;15.498;2023-04-19T04:46:02;8.18;;;3.47;;
57441;SDS011;43284;47.042;15.498;2023-04-19T04:48:28;5.05;;;3.10;;
57441;SDS011;43284;47.042;15.498;2023-04-19T04:50:55;4.78;;;2.83;;
57441;SDS011;43284;47.042;15.498;2023-04-19T04:53:21;10.48;;;3.58;;
57441;SDS011;43284;47.042;15.498;2023-04-19T04:55:47;4.13;;;2.80;;
57441;SDS011;43284;47.042;15.498;2023-04-19T04:58:12;5.80;;;3.28;;
57441;SDS011;43284;47.042;15.498;2023-04-19T05:00:38;4.65;;;3.10;;
57441;SDS011;43284;47.042;15.498;2023-04-19T05:03:03;7.93;;;3.50;;
57441;SDS011;43284;47.042;15.498;2023-04-19T05:05:29;4.93;;;2.58;;
57441;SDS011;43284;47.042;15.498;2023-04-19T05:07:54;6.55;;;3.47;;
57441;SDS011;43284;47.042;15.498;2023-04-19T05:10:20;7.78;;;3.30;;
57441;SDS011;43284;47.042;15.498;2023-04-19T05:12:46;7.70;;;4.05;;
57441;SDS011;43284;47.042;15.498;2023-04-19T05:15:11;7.63;;;3.75;;
57441;SDS011;43284;47.042;15.498;2023-04-19T05:17:37;9.00;;;4.47;;
57441;SDS011;43284;47.042;15.498;2023-04-19T05:20:02;5.35;;;2.95;;
57441;SDS011;43284;47.042;15.498;2023-04-19T05:22:29;8.73;;;3.50;;
57441;SDS011;43284;47.042;15.498;2023-04-19T05:24:55;7.00;;;3.75;;
57441;SDS011;43284;47.042;15.498;2023-04-19T05:27:20;11.32;;;5.03;;
57441;SDS011;43284;47.042;15.498;2023-04-19T05:29:46;15.38;;;4.35;;
57441;SDS011;43284;47.042;15.498;2023-04-19T05:32:12;13.18;;;5.20;;
57441;SDS011;43284;47.042;15.498;2023-04-19T05:34:37;9.75;;;4.28;;
57441;SDS011;43284;47.042;15.498;2023-04-19T05:37:03;5.65;;;3.55;;
57441;SDS011;43284;47.042;15.498;2023-04-19T05:39:29;6.82;;;3.45;;
57441;SDS011;43284;47.042;15.498;2023-04-19T05:41:55;9.88;;;5.13;;
57441;SDS011;43284;47.042;15.498;2023-04-19T05:44:20;7.97;;;4.75;;
57441;SDS011;43284;47.042;15.498;2023-04-19T05:46:46;11.30;;;5.40;;
57441;SDS011;43284;47.042;15.498;2023-04-19T05:49:11;10.55;;;5.35;;
57441;SDS011;43284;47.042;15.498;2023-04-19T05:51:37;14.07;;;5.22;;
57441;SDS011;43284;47.042;15.498;2023-04-19T05:54:02;13.20;;;6.00;;
57441;SDS011;43284;47.042;15.498;2023-04-19T05:56:28;9.88;;;5.18;;
57441;SDS011;43284;47.042;15.498;2023-04-19T05:58:54;11.55;;;5.10;;
57441;SDS011;43284;47.042;15.498;2023-04-19T06:01:24;14.45;;;5.53;;
57441;SDS011;43284;47.042;15.498;2023-04-19T06:03:49;15.48;;;5.45;;
57441;SDS011;43284;47.042;15.498;2023-04-19T06:06:17;9.98;;;5.13;;
57441;SDS011;43284;47.042;15.498;2023-04-19T06:08:43;13.07;;;5.00;;
57441;SDS011;43284;47.042;15.498;2023-04-19T06:11:09;16.38;;;5.55;;
57441;SDS011;43284;47.042;15.498;2023-04-19T06:13:34;12.02;;;4.93;;
57441;SDS011;43284;47.042;15.498;2023-04-19T06:16:00;12.68;;;5.05;;
57441;SDS011;43284;47.042;15.498;2023-04-19T06:18:27;11.77;;;5.47;;
57441;SDS011;43284;47.042;15.498;2023-04-19T06:20:52;11.68;;;5.78;;
57441;SDS011;43284;47.042;15.498;2023-04-19T06:23:18;7.20;;;4.28;;
57441;SDS011;43284;47.042;15.498;2023-04-19T06:25:43;8.02;;;4.50;;
57441;SDS011;43284;47.042;15.498;2023-04-19T06:28:09;7.30;;;4.20;;
57441;SDS011;43284;47.042;15.498;2023-04-19T06:30:35;6.03;;;4.07;;
57441;SDS011;43284;47.042;15.498;2023-04-19T06:33:00;8.27;;;4.05;;
57441;SDS011;43284;47.042;15.498;2023-04-19T06:35:26;10.38;;;3.78;;
57441;SDS011;43284;47.042;15.498;2023-04-19T06:37:51;6.35;;;4.10;;
57441;SDS011;43284;47.042;15.498;2023-04-19T06:40:17;7.25;;;4.20;;
57441;SDS011;43284;47.042;15.498;2023-04-19T06:42:43;8.00;;;4.55;;
57441;SDS011;43284;47.042;15.498;2023-04-19T06:45:08;5.93;;;3.92;;
57441;SDS011;43284;47.042;15.498;2023-04-19T06:47:35;11.88;;;4.00;;
57441;SDS011;43284;47.042;15.498;2023-04-19T06:50:00;8.88;;;4.15;;
57441;SDS011;43284;47.042;15.498;2023-04-19T06:52:27;9.30;;;4.45;;
57441;SDS011;43284;47.042;15.498;2023-04-19T06:54:53;7.35;;;4.30;;
57441;SDS011;43284;47.042;15.498;2023-04-19T06:57:18;6.05;;;3.70;;
57441;SDS011;43284;47.042;15.498;2023-04-19T06:59:44;7.85;;;4.25;;
57441;SDS011;43284;47.042;15.498;2023-04-19T07:02:09;12.48;;;5.65;;
57441;SDS011;43284;47.042;15.498;2023-04-19T07:04:35;10.55;;;4.85;;
57441;SDS011;43284;47.042;15.498;2023-04-19T07:07:01;6.50;;;4.00;;
57441;SDS011;43284;47.042;15.498;2023-04-19T07:09:27;10.80;;;4.13;;
57441;SDS011;43284;47.042;15.498;2023-04-19T07:11:53;6.03;;;4.07;;
57441;SDS011;43284;47.042;15.498;2023-04-19T07:14:19;8.68;;;4.05;;
57441;SDS011;43284;47.042;15.498;2023-04-19T07:16:45;9.07;;;4.22;;
57441;SDS011;43284;47.042;15.498;2023-04-19T07:19:12;7.32;;;3.67;;
57441;SDS011;43284;47.042;15.498;2023-04-19T07:21:38;9.55;;;4.28;;
57441;SDS011;43284;47.042;15.498;2023-04-19T07:24:06;6.68;;;3.58;;
57441;SDS011;43284;47.042;15.498;2023-04-19T07:26:32;5.90;;;3.63;;
57441;SDS011;43284;47.042;15.498;2023-04-19T07:28:59;7.82;;;4.20;;
57441;SDS011;43284;47.042;15.498;2023-04-19T07:31:25;6.30;;;3.92;;
57441;SDS011;43284;47.042;15.498;2023-04-19T07:33:52;8.82;;;4.32;;
57441;SDS011;43284;47.042;15.498;2023-04-19T07:36:17;6.90;;;4.05;;
57441;SDS011;43284;47.042;15.498;2023-04-19T07:38:43;9.57;;;3.92;;
57441;SDS011;43284;47.042;15.498;2023-04-19T07:41:09;7.00;;;3.63;;
57441;SDS011;43284;47.042;15.498;2023-04-19T07:43:35;9.30;;;4.13;;
57441;SDS011;43284;47.042;15.498;2023-04-19T07:46:01;9.23;;;3.80;;
57441;SDS011;43284;47.042;15.498;2023-04-19T07:48:33;7.20;;;3.78;;
57441;SDS011;43284;47.042;15.498;2023-04-19T07:51:06;6.50;;;3.78;;
57441;SDS011;43284;47.042;15.498;2023-04-19T07:53:33;8.52;;;4.13;;
57441;SDS011;43284;47.042;15.498;2023-04-19T07:55:58;10.32;;;3.88;;
57441;SDS011;43284;47.042;15.498;2023-04-19T07:58:24;5.28;;;3.08;;
57441;SDS011;43284;47.042;15.498;2023-04-19T08:00:50;5.93;;;3.38;;
57441;SDS011;43284;47.042;15.498;2023-04-19T08:03:16;6.88;;;3.50;;
57441;SDS011;43284;47.042;15.498;2023-04-19T08:05:41;6.18;;;3.53;;
57441;SDS011;43284;47.042;15.498;2023-04-19T08:08:07;6.40;;;3.65;;
57441;SDS011;43284;47.042;15.498;2023-04-19T08:10:32;5.22;;;3.33;;
57441;SDS011;43284;47.042;15.498;2023-04-19T08:12:58;5.78;;;3.28;;
57441;SDS011;43284;47.042;15.498;2023-04-19T08:15:24;5.18;;;3.35;;
57441;SDS011;43284;47.042;15.498;2023-04-19T08:17:50;4.88;;;3.08;;
57441;SDS011;43284;47.042;15.498;2023-04-19T08:20:15;5.28;;;3.22;;
57441;SDS011;43284;47.042;15.498;2023-04-19T08:22:41;8.00;;;3.60;;
57441;SDS011;43284;47.042;15.498;2023-04-19T08:25:07;6.13;;;3.42;;
57441;SDS011;43284;47.042;15.498;2023-04-19T08:27:34;9.88;;;4.22;;
57441;SDS011;43284;47.042;15.498;2023-04-19T08:29:59;5.70;;;3.20;;
57441;SDS011;43284;47.042;15.498;2023-04-19T08:32:25;6.82;;;2.90;;
57441;SDS011;43284;47.042;15.498;2023-04-19T08:34:51;4.60;;;2.85;;
57441;SDS011;43284;47.042;15.498;2023-04-19T08:37:17;6.90;;;4.40;;
57441;SDS011;43284;47.042;15.498;2023-04-19T08:39:42;7.63;;;3.17;;
57441;SDS011;43284;47.042;15.498;2023-04-19T08:42:08;5.30;;;3.15;;
57441;SDS011;43284;47.042;15.498;2023-04-19T08:44:35;5.60;;;2.92;;
57441;SDS011;43284;47.042;15.498;2023-04-19T08:47:03;7.22;;;3.33;;
57441;SDS011;43284;47.042;15.498;2023-04-19T08:49:30;6.53;;;3.20;;
57441;SDS011;43284;47.042;15.498;2023-04-19T08:51:58;6.47;;;3.22;;
57441;SDS011;43284;47.042;15.498;2023-04-19T08:54:27;6.95;;;3.17;;
57441;SDS011;43284;47.042;15.498;2023-04-19T08:56:53;10.18;;;3.45;;
57441;SDS011;43284;47.042;15.498;2023-04-19T08:59:20;5.07;;;2.85;;
57441;SDS011;43284;47.042;15.498;2023-04-19T09:01:46;5.75;;;3.15;;
57441;SDS011;43284;47.042;15.498;2023-04-19T09:04:11;7.40;;;3.40;;
57441;SDS011;43284;47.042;15.498;2023-04-19T09:06:37;8.40;;;3.38;;
57441;SDS011;43284;47.042;15.498;2023-04-19T09:09:14;4.70;;;3.00;;
57441;SDS011;43284;47.042;15.498;2023-04-19T09:11:51;5.90;;;3.25;;
57441;SDS011;43284;47.042;15.498;2023-04-19T09:14:17;4.43;;;2.88;;
57441;SDS011;43284;47.042;15.498;2023-04-19T09:16:44;5.18;;;3.20;;
57441;SDS011;43284;47.042;15.498;2023-04-19T09:19:10;4.78;;;3.15;;
57441;SDS011;43284;47.042;15.498;2023-04-19T09:21:36;4.63;;;3.20;;
57441;SDS011;43284;47.042;15.498;2023-04-19T09:24:03;19.88;;;3.65;;
57441;SDS011;43284;47.042;15.498;2023-04-19T09:26:28;3.97;;;2.80;;
57441;SDS011;43284;47.042;15.498;2023-04-19T09:28:55;8.93;;;2.95;;
57441;SDS011;43284;47.042;15.498;2023-04-19T09:31:27;5.95;;;3.30;;
57441;SDS011;43284;47.042;15.498;2023-04-19T09:33:53;3.90;;;2.83;;
57441;SDS011;43284;47.042;15.498;2023-04-19T09:36:26;6.00;;;2.67;;
57441;SDS011;43284;47.042;15.498;2023-04-19T09:38:55;5.57;;;3.75;;
57441;SDS011;43284;47.042;15.498;2023-04-19T09:41:21;6.75;;;3.55;;
57441;SDS011;43284;47.042;15.498;2023-04-19T09:43:47;9.20;;;3.65;;
57441;SDS011;43284;47.042;15.498;2023-04-19T09:46:29;8.00;;;3.28;;
57441;SDS011;43284;47.042;15.498;2023-04-19T09:51:55;5.25;;;3.13;;
57441;SDS011;43284;47.042;15.498;2023-04-19T09:54:24;11.65;;;3.58;;
57441;SDS011;43284;47.042;15.498;2023-04-19T09:56:54;5.27;;;3.60;;
57441;SDS011;43284;47.042;15.498;2023-04-19T09:59:19;8.82;;;3.80;;
57441;SDS011;43284;47.042;15.498;2023-04-19T10:01:47;5.55;;;3.25;;
57441;SDS011;43284;47.042;15.498;2023-04-19T10:04:14;6.50;;;3.28;;
57441;SDS011;43284;47.042;15.498;2023-04-19T10:06:46;5.32;;;3.55;;
57441;SDS011;43284;47.042;15.498;2023-04-19T10:09:16;7.03;;;3.38;;
57441;SDS011;43284;47.042;15.498;2023-04-19T10:11:49;5.88;;;3.22;;
57441;SDS011;43284;47.042;15.498;2023-04-19T10:14:16;5.18;;;2.88;;
57441;SDS011;43284;47.042;15.498;2023-04-19T10:16:46;5.00;;;3.95;;
57441;SDS011;43284;47.042;15.498;2023-04-19T10:19:13;9.15;;;4.05;;
57441;SDS011;43284;47.042;15.498;2023-04-19T10:21:42;7.82;;;4.32;;
57441;SDS011;43284;47.042;15.498;2023-04-19T10:24:08;7.70;;;4.40;;
57441;SDS011;43284;47.042;15.498;2023-04-19T10:30:09;8.98;;;5.90;;
57441;SDS011;43284;47.042;15.498;2023-04-19T10:32:15;7.93;;;4.50;;
57441;SDS011;43284;47.042;15.498;2023-04-19T10:34:41;9.32;;;5.35;;
57441;SDS011;43284;47.042;15.498;2023-04-19T10:37:10;14.43;;;6.57;;
57441;SDS011;43284;47.042;15.498;2023-04-19T10:39:41;8.68;;;5.07;;
57441;SDS011;43284;47.042;15.498;2023-04-19T10:42:07;10.93;;;5.35;;
57441;SDS011;43284;47.042;15.498;2023-04-19T10:44:33;9.15;;;5.22;;
57441;SDS011;43284;47.042;15.498;2023-04-19T10:46:59;12.18;;;5.72;;
57441;SDS011;43284;47.042;15.498;2023-04-19T10:49:27;11.43;;;5.68;;
57441;SDS011;43284;47.042;15.498;2023-04-19T10:51:53;8.13;;;5.28;;
57441;SDS011;43284;47.042;15.498;2023-04-19T10:54:29;7.45;;;5.07;;
57441;SDS011;43284;47.042;15.498;2023-04-19T10:56:57;13.57;;;5.75;;
57441;SDS011;43284;47.042;15.498;2023-04-19T10:59:24;11.77;;;5.65;;
57441;SDS011;43284;47.042;15.498;2023-04-19T11:01:51;12.93;;;5.60;;
57441;SDS011;43284;47.042;15.498;2023-04-19T11:07:00;13.00;;;6.05;;
57441;SDS011;43284;47.042;15.498;2023-04-19T11:09:37;9.43;;;5.88;;
57441;SDS011;43284;47.042;15.498;2023-04-19T11:12:07;13.95;;;6.72;;
57441;SDS011;43284;47.042;15.498;2023-04-19T11:14:39;14.82;;;6.68;;
57441;SDS011;43284;47.042;15.498;2023-04-19T11:17:15;12.00;;;6.78;;
57441;SDS011;43284;47.042;15.498;2023-04-19T11:19:46;13.35;;;7.13;;
57441;SDS011;43284;47.042;15.498;2023-04-19T11:22:39;15.88;;;7.13;;
57441;SDS011;43284;47.042;15.498;2023-04-19T11:25:07;13.13;;;6.95;;
57441;SDS011;43284;47.042;15.498;2023-04-19T11:27:36;14.27;;;7.10;;
57441;SDS011;43284;47.042;15.498;2023-04-19T11:30:35;14.20;;;6.80;;
57441;SDS011;43284;47.042;15.498;2023-04-19T11:32:55;15.15;;;7.18;;
57441;SDS011;43284;47.042;15.498;2023-04-19T11:35:23;11.88;;;6.68;;
57441;SDS011;43284;47.042;15.498;2023-04-19T11:37:50;10.45;;;6.07;;
57441;SDS011;43284;47.042;15.498;2023-04-19T11:40:17;12.80;;;6.88;;
57441;SDS011;43284;47.042;15.498;2023-04-19T11:42:43;13.73;;;7.70;;
57441;SDS011;43284;47.042;15.498;2023-04-19T11:45:09;13.63;;;5.97;;
57441;SDS011;43284;47.042;15.498;2023-04-19T11:47:48;10.77;;;6.28;;
57441;SDS011;43284;47.042;15.498;2023-04-19T11:50:31;11.15;;;5.63;;
57441;SDS011;43284;47.042;15.498;2023-04-19T11:52:58;12.68;;;6.05;;
57441;SDS011;43284;47.042;15.498;2023-04-19T11:55:24;14.30;;;6.78;;
57441;SDS011;43284;47.042;15.498;2023-04-19T11:57:50;12.80;;;6.63;;
57441;SDS011;43284;47.042;15.498;2023-04-19T12:00:17;18.48;;;7.28;;
57441;SDS011;43284;47.042;15.498;2023-04-19T12:02:51;14.07;;;7.53;;
57441;SDS011;43284;47.042;15.498;2023-04-19T12:05:18;16.90;;;8.15;;
57441;SDS011;43284;47.042;15.498;2023-04-19T12:10:55;18.13;;;8.80;;
57441;SDS011;43284;47.042;15.498;2023-04-19T12:13:22;16.77;;;9.70;;
57441;SDS011;43284;47.042;15.498;2023-04-19T12:15:50;17.25;;;9.45;;
57441;SDS011;43284;47.042;15.498;2023-04-19T12:18:15;16.58;;;8.90;;
57441;SDS011;43284;47.042;15.498;2023-04-19T12:20:44;17.17;;;8.55;;
57441;SDS011;43284;47.042;15.498;2023-04-19T12:23:11;17.33;;;9.00;;
57441;SDS011;43284;47.042;15.498;2023-04-19T12:25:39;25.27;;;9.77;;
57441;SDS011;43284;47.042;15.498;2023-04-19T12:28:06;16.63;;;9.20;;
57441;SDS011;43284;47.042;15.498;2023-04-19T12:30:32;18.02;;;8.90;;
57441;SDS011;43284;47.042;15.498;2023-04-19T12:32:59;17.50;;;10.20;;
57441;SDS011;43284;47.042;15.498;2023-04-19T12:35:25;20.23;;;9.57;;
57441;SDS011;43284;47.042;15.498;2023-04-19T12:37:54;14.13;;;8.60;;
57441;SDS011;43284;47.042;15.498;2023-04-19T12:40:22;29.35;;;12.70;;
57441;SDS011;43284;47.042;15.498;2023-04-19T12:42:49;20.10;;;9.95;;
57441;SDS011;43284;47.042;15.498;2023-04-19T12:45:15;16.80;;;9.05;;
57441;SDS011;43284;47.042;15.498;2023-04-19T12:47:42;19.17;;;10.82;;
57441;SDS011;43284;47.042;15.498;2023-04-19T12:50:08;24.77;;;12.70;;
57441;SDS011;43284;47.042;15.498;2023-04-19T12:52:34;21.90;;;11.05;;
57441;SDS011;43284;47.042;15.498;2023-04-19T12:55:00;18.38;;;10.25;;
57441;SDS011;43284;47.042;15.498;2023-04-19T12:57:25;23.17;;;11.43;;
57441;SDS011;43284;47.042;15.498;2023-04-19T12:59:52;24.35;;;11.48;;
57441;SDS011;43284;47.042;15.498;2023-04-19T13:02:18;19.23;;;9.93;;
57441;SDS011;43284;47.042;15.498;2023-04-19T13:04:43;19.17;;;10.90;;
57441;SDS011;43284;47.042;15.498;2023-04-19T13:07:09;19.98;;;10.52;;
57441;SDS011;43284;47.042;15.498;2023-04-19T13:09:34;20.70;;;10.85;;
57441;SDS011;43284;47.042;15.498;2023-04-19T13:12:00;21.40;;;10.32;;
57441;SDS011;43284;47.042;15.498;2023-04-19T13:14:26;22.25;;;10.75;;
57441;SDS011;43284;47.042;15.498;2023-04-19T13:16:52;23.98;;;9.70;;
57441;SDS011;43284;47.042;15.498;2023-04-19T13:19:17;15.15;;;8.98;;
57441;SDS011;43284;47.042;15.498;2023-04-19T13:21:43;15.35;;;9.00;;
57441;SDS011;43284;47.042;15.498;2023-04-19T13:24:09;18.20;;;9.77;;
57441;SDS011;43284;47.042;15.498;2023-04-19T13:26:34;16.73;;;10.13;;
57441;SDS011;43284;47.042;15.498;2023-04-19T13:29:00;16.10;;;9.18;;
57441;SDS011;43284;47.042;15.498;2023-04-19T13:31:26;15.60;;;8.73;;
57441;SDS011;43284;47.042;15.498;2023-04-19T13:33:52;15.65;;;8.60;;
57441;SDS011;43284;47.042;15.498;2023-04-19T13:36:17;14.23;;;8.13;;
57441;SDS011;43284;47.042;15.498;2023-04-19T13:38:43;12.30;;;7.85;;
57441;SDS011;43284;47.042;15.498;2023-04-19T13:41:09;22.77;;;10.68;;
57441;SDS011;43284;47.042;15.498;2023-04-19T13:43:35;15.90;;;8.68;;
57441;SDS011;43284;47.042;15.498;2023-04-19T13:46:01;13.88;;;8.50;;
57441;SDS011;43284;47.042;15.498;2023-04-19T13:48:26;11.77;;;7.95;;
57441;SDS011;43284;47.042;15.498;2023-04-19T13:50:56;15.52;;;8.85;;
57441;SDS011;43284;47.042;15.498;2023-04-19T13:53:23;13.32;;;8.35;;
57441;SDS011;43284;47.042;15.498;2023-04-19T13:55:50;13.30;;;8.25;;
57441;SDS011;43284;47.042;15.498;2023-04-19T13:58:16;16.58;;;9.48;;
57441;SDS011;43284;47.042;15.498;2023-04-19T14:00:42;16.00;;;8.98;;
57441;SDS011;43284;47.042;15.498;2023-04-19T14:03:09;15.63;;;9.05;;
57441;SDS011;43284;47.042;15.498;2023-04-19T14:05:34;15.73;;;9.48;;
57441;SDS011;43284;47.042;15.498;2023-04-19T14:08:00;14.50;;;8.60;;
57441;SDS011;43284;47.042;15.498;2023-04-19T14:10:26;18.63;;;9.00;;
57441;SDS011;43284;47.042;15.498;2023-04-19T14:12:51;16.40;;;8.90;;
57441;SDS011;43284;47.042;15.498;2023-04-19T14:15:20;12.48;;;8.02;;
57441;SDS011;43284;47.042;15.498;2023-04-19T14:17:47;16.55;;;8.05;;
57441;SDS011;43284;47.042;15.498;2023-04-19T14:20:13;16.05;;;8.20;;
57441;SDS011;43284;47.042;15.498;2023-04-19T14:22:39;15.27;;;8.90;;
57441;SDS011;43284;47.042;15.498;2023-04-19T14:25:05;16.27;;;8.95;;
57441;SDS011;43284;47.042;15.498;2023-04-19T14:27:31;14.98;;;8.77;;
57441;SDS011;43284;47.042;15.498;2023-04-19T14:29:56;14.43;;;9.25;;
57441;SDS011;43284;47.042;15.498;2023-04-19T14:32:22;16.05;;;9.65;;
57441;SDS011;43284;47.042;15.498;2023-04-19T14:34:48;14.93;;;8.80;;
57441;SDS011;43284;47.042;15.498;2023-04-19T14:37:13;18.10;;;10.15;;